Latest Weather Observations for Condobolin Airport

IDN60801

Issued at 5:52 pm EST Friday 1 July 2022 (issued every 10 minutes, with the page automatically refreshed every 10 minutes)

About weather observations | Map of weather stations | Latest weather observations for NSW | Other Formats
Station Details ID: 050137 Name: CONDOBOLIN AIRPORT AWS Lat: -33.07 Lon: 147.21 Height: 192.6 m
Data from the previous 72 hours. | See also: Recent months at Condobolin Airport
Date/Time
EST
Temp
°C
App
Temp
°C
Dew
Point
°C
Rel
Hum
%
Delta-T
°C
Wind Press
QNH
hPa
Press
MSL
hPa
Rain since
9am
mm
Dir  Spd
km/h
Gust
km/h
Spd
kts
Gust
kts
01/05:30pm 9.8 6.3 7.2 84 1.2 S 15 22 8 12 1024.5 1024.9 0.0
01/05:00pm 9.9 6.8 7.3 84 1.2 S 13 20 7 11 1024.5 1024.9 0.0
01/04:30pm 10.0 5.8 7.4 84 1.3 SSW 19 26 10 14 1024.2 1024.6 0.0
01/04:00pm 10.3 7.3 7.9 85 1.2 SSW 13 17 7 9 1023.7 1024.1 0.0
01/03:30pm 10.2 7.2 7.8 85 1.2 S 13 19 7 10 1023.6 1024.0 0.0
01/03:00pm 10.2 6.5 7.8 85 1.2 S 17 24 9 13 1024.0 1024.4 0.0
01/02:30pm 10.4 7.5 8.2 86 1.1 S 13 20 7 11 1024.1 1024.5 0.0
01/02:00pm 10.5 6.9 8.3 86 1.1 S 17 26 9 14 1023.9 1024.3 0.0
01/01:30pm 10.8 7.3 8.9 88 1.0 S 17 24 9 13 1023.8 1024.2 0.0
01/01:00pm 10.6 7.1 8.9 89 0.8 S 17 22 9 12 1023.9 1024.3 0.0
01/12:30pm 10.5 9.0 9.1 91 0.7 SSE 7 11 4 6 1024.4 1024.8 0.0
01/12:00pm 10.4 8.5 9.0 91 0.7 ESE 9 13 5 7 1024.7 1025.1 0.0
01/11:30am 10.5 7.9 9.3 92 0.6 SE 13 15 7 8 1024.7 1025.1 0.0
01/11:00am 10.1 7.4 9.0 93 0.5 SE 13 17 7 9 1024.7 1025.1 0.0
01/10:30am 9.7 6.9 8.6 93 0.5 SE 13 17 7 9 1025.0 1025.3 0.0
01/10:00am 9.7 7.0 8.8 94 0.4 SE 13 20 7 11 1025.0 1025.3 0.0
01/09:30am 9.4 6.6 8.6 95 0.4 SE 13 19 7 10 1024.7 1025.0 0.0
01/09:00am 9.0 6.9 8.4 96 0.3 SE 9 17 5 9 1024.8 1025.1 6.6
01/08:30am 8.5 6.3 7.7 95 0.4 SSW 9 11 5 6 1025.2 1025.4 6.6
01/08:00am 7.6 6.8 6.7 94 0.4 CALM 0 0 0 0 1024.8 1025.1 6.6
01/07:30am 7.6 6.8 6.7 94 0.4 CALM 0 0 0 0 1024.7 1025.0 6.6
01/07:00am 8.1 7.1 7.2 94 0.4 S 2 7 1 4 1023.9 1024.2 6.6
01/06:30am 8.3 7.3 7.4 94 0.4 SE 2 7 1 4 1024.1 1024.4 6.6
01/06:00am 8.2 6.8 7.3 94 0.4 ESE 4 7 2 4 1024.0 1024.3 6.6
01/05:30am 8.4 6.4 7.3 93 0.5 ESE 7 11 4 6 1023.7 1024.0 6.6
01/05:00am 8.6 5.9 7.5 93 0.5 E 11 17 6 9 1023.8 1024.1 6.6
01/04:30am 8.9 5.9 7.8 93 0.5 E 13 17 7 9 1023.4 1023.7 6.6
01/04:00am 9.2 6.7 8.0 92 0.6 ESE 11 19 6 10 1023.7 1024.0 6.0
01/03:30am 9.4 6.1 8.2 92 0.6 SE 15 20 8 11 1023.4 1023.7 5.6
01/03:27am 9.5 6.6 8.3 92 0.6 SSE 13 20 7 11 1023.5 1023.8 5.4
01/03:08am 9.7 6.8 8.3 91 0.7 SSE 13 20 7 11 1023.6 1023.9 0.8
01/03:00am 9.7 6.1 8.3 91 0.7 SE 17 22 9 12 1023.2 1023.5 0.8
01/02:30am 9.8 6.6 8.4 91 0.7 SE 15 20 8 11 1023.3 1023.6 0.8
01/02:00am 9.8 7.7 8.2 90 0.8 S 9 13 5 7 1023.8 1024.1 0.8
01/01:30am 10.1 8.1 8.5 90 0.8 S 9 15 5 8 1023.6 1023.9 0.4
01/01:00am 10.1 8.6 8.4 89 0.8 WSW 6 9 3 5 1023.8 1024.1 0.4
01/12:30am 10.4 8.4 8.7 89 0.8 SSW 9 13 5 7 1023.8 1024.1 0.0
01/12:00am 10.6 7.5 8.9 89 0.8 SSW 15 20 8 11 1023.7 1024.0 0.0
 
Date/Time
EST
Temp
°C
App
Temp
°C
Dew
Point
°C
Rel
Hum
%
Delta-T
°C
Wind Press
QNH
hPa
Press
MSL
hPa
Rain since
9am
mm
Dir  Spd
km/h
Gust
km/h
Spd
kts
Gust
kts
30/11:30pm 10.6 7.9 8.9 89 0.8 SW 13 19 7 10 1024.0 1024.3 0.0
30/11:00pm 10.2 8.5 8.3 88 0.9 S 7 11 4 6 1023.7 1024.0 0.0
30/10:30pm 10.0 7.9 8.1 88 0.9 SSW 9 13 5 7 1023.6 1023.9 0.0
30/10:00pm 8.9 6.5 6.9 87 0.9 SW 9 11 5 6 1023.5 1023.8 0.0
30/09:30pm 8.6 7.7 6.2 85 1.1 CALM 0 0 0 0 1023.2 1023.5 0.0
30/09:00pm 9.0 8.2 6.6 85 1.1 CALM 0 0 0 0 1023.1 1023.4 0.0
30/08:30pm 9.8 7.8 7.2 84 1.2 E 7 9 4 5 1022.9 1023.2 0.0
30/08:00pm 9.9 7.6 7.3 84 1.2 ESE 9 11 5 6 1022.8 1023.1 0.0
30/07:30pm 9.7 8.2 7.0 83 1.3 ESE 4 9 2 5 1022.7 1023.0 0.0
30/07:00pm 9.6 8.8 6.7 82 1.4 CALM 0 0 0 0 1022.6 1022.8 0.0
30/06:30pm 10.3 9.3 7.2 81 1.5 SSE 2 7 1 4 1022.3 1022.5 0.0
30/06:00pm 10.7 10.1 7.4 80 1.6 CALM 0 0 0 0 1022.0 1022.2 0.0
30/05:30pm 11.1 9.8 7.6 79 1.7 SE 4 7 2 4 1022.0 1022.2 0.0
30/05:00pm 11.8 10.2 7.9 77 1.9 SE 6 7 3 4 1021.8 1022.0 0.0
30/04:30pm 12.7 10.7 8.6 76 2.1 SE 9 11 5 6 1021.8 1022.0 0.0
30/04:00pm 13.5 11.7 9.4 76 2.1 E 9 13 5 7 1021.7 1021.9 0.0
30/03:30pm 14.0 11.9 9.8 76 2.2 E 11 15 6 8 1021.7 1021.9 0.0
30/03:00pm 14.0 11.9 9.8 76 2.2 E 11 15 6 8 1021.7 1021.9 0.0
30/02:30pm 14.0 11.9 9.8 76 2.2 E 11 15 6 8 1021.9 1022.1 0.0
30/02:00pm 14.0 12.0 10.0 77 2.1 E 11 15 6 8 1022.0 1022.2 0.0
30/01:30pm 13.7 12.0 9.9 78 2.0 ESE 9 11 5 6 1022.5 1022.7 0.0
30/01:00pm 13.8 11.8 10.2 79 1.9 E 11 13 6 7 1022.8 1023.1 0.0
30/12:30pm 13.4 12.1 10.0 80 1.8 ESE 7 11 4 6 1023.1 1023.4 0.0
30/12:00pm 13.5 12.4 10.5 82 1.6 ESE 7 9 4 5 1023.5 1023.8 0.0
30/11:30am 13.1 11.2 10.5 84 1.4 ENE 11 15 6 8 1023.7 1024.0 0.0
30/11:00am 12.2 10.1 9.9 86 1.2 ENE 11 13 6 7 1024.0 1024.3 0.0
30/10:30am 11.6 9.5 9.7 88 1.0 ENE 11 15 6 8 1024.0 1024.3 0.0
30/10:00am 10.6 8.7 9.0 90 0.8 ENE 9 11 5 6 1024.4 1024.7 0.0
30/09:30am 9.9 7.9 8.5 91 0.7 E 9 11 5 6 1024.2 1024.5 0.0
30/09:00am 8.8 8.2 7.4 91 0.7 CALM 0 0 0 0 1023.9 1024.2 0.0
30/08:30am 8.1 7.3 6.6 90 0.7 CALM 0 0 0 0 1024.0 1024.3 0.0
30/08:00am 7.7 6.8 6.2 90 0.7 CALM 0 0 0 0 1023.9 1024.2 0.0
30/07:30am 7.3 5.0 5.6 89 0.8 ENE 7 9 4 5 1023.6 1023.9 0.0
30/07:00am 7.2 4.9 5.5 89 0.8 E 7 9 4 5 1023.6 1023.9 0.0
30/06:30am 7.1 5.7 5.4 89 0.8 ESE 2 7 1 4 1023.5 1023.8 0.0
30/06:00am 7.1 6.1 5.4 89 0.8 CALM 0 0 0 0 1023.4 1023.7 0.0
30/05:30am 6.5 5.3 4.7 88 0.8 CALM 0 0 0 0 1022.6 1022.8 0.0
30/05:00am 6.3 4.7 4.5 88 0.8 ENE 2 6 1 3 1022.3 1022.5 0.0
30/04:30am 6.2 3.6 4.2 87 0.9 E 7 9 4 5 1021.7 1021.9 0.0
30/04:00am 6.7 5.5 4.7 87 0.9 CALM 0 0 0 0 1022.3 1022.5 0.0
30/03:30am 6.2 4.2 4.2 87 0.9 NE 4 9 2 5 1021.9 1022.1 0.0
30/03:00am 6.0 4.6 3.8 86 0.9 CALM 0 0 0 0 1022.3 1022.5 0.0
30/02:30am 5.9 4.5 3.6 85 1.0 CALM 0 0 0 0 1022.1 1022.3 0.0
30/02:00am 6.9 5.7 4.6 85 1.0 CALM 0 0 0 0 1022.2 1022.4 0.0
30/01:30am 7.3 5.0 5.0 85 1.0 S 6 7 3 4 1022.1 1022.3 0.0
30/01:00am 7.4 5.9 4.9 84 1.1 ENE 2 7 1 4 1022.0 1022.2 0.0
30/12:30am 7.3 4.8 4.8 84 1.1 NE 7 9 4 5 1022.0 1022.2 0.0
30/12:00am 7.0 4.5 4.5 84 1.1 ENE 7 9 4 5 1022.2 1022.4 0.0
 
Date/Time
EST
Temp
°C
App
Temp
°C
Dew
Point
°C
Rel
Hum
%
Delta-T
°C
Wind Press
QNH
hPa
Press
MSL
hPa
Rain since
9am
mm
Dir  Spd
km/h
Gust
km/h
Spd
kts
Gust
kts
29/11:30pm 6.9 5.6 4.2 83 1.2 CALM 0 0 0 0 1022.5 1022.7 0.0
29/11:00pm 6.7 5.4 3.9 82 1.2 CALM 0 6 0 3 1023.0 1023.3 0.0
29/10:30pm 6.8 5.4 3.8 81 1.3 CALM 0 0 0 0 1023.0 1023.3 0.0
29/10:00pm 6.2 4.7 3.2 81 1.3 CALM 0 0 0 0 1022.9 1023.2 0.0
29/09:30pm 6.4 4.9 3.0 79 1.4 CALM 0 0 0 0 1023.2 1023.5 0.0
29/09:00pm 6.8 5.3 3.2 78 1.5 CALM 0 0 0 0 1023.3 1023.6 0.0
29/08:30pm 7.3 5.9 3.5 77 1.6 CALM 0 0 0 0 1023.3 1023.6 0.0
29/08:00pm 7.8 5.7 3.8 76 1.7 NNE 4 7 2 4 1023.1 1023.4 0.0
29/07:30pm 8.2 5.7 4.0 75 1.8 NNE 6 9 3 5 1023.5 1023.8 0.0
29/07:00pm 8.8 7.6 4.4 74 1.9 CALM 0 0 0 0 1023.2 1023.5 0.0
29/06:30pm 9.0 7.8 4.4 73 2.1 CALM 0 0 0 0 1023.1 1023.4 0.0
29/06:00pm 9.1 6.5 4.3 72 2.1 NNE 7 9 4 5 1022.7 1023.0 0.0
29/05:30pm 9.9 7.5 4.5 69 2.4 N 6 7 3 4 1023.1 1023.4 0.0
29/05:00pm 11.5 8.8 5.6 67 2.7 N 9 11 5 6 1022.7 1023.0 0.0
29/04:30pm 12.6 9.7 6.4 66 3.0 N 11 15 6 8 1022.9 1023.2 0.0
29/04:00pm 13.3 10.5 6.9 65 3.1 N 11 17 6 9 1022.9 1023.2 0.0
29/03:30pm 13.5 10.7 6.8 64 3.3 N 11 17 6 9 1022.8 1023.1 0.0
29/03:00pm 14.0 10.5 7.3 64 3.3 N 15 20 8 11 1023.1 1023.4 0.0
29/02:30pm 14.3 10.1 7.6 64 3.3 N 19 26 10 14 1023.4 1023.7 0.0
29/02:00pm 14.6 10.4 8.1 65 3.3 NNW 20 30 11 16 1023.6 1023.9 0.0
29/01:30pm 14.0 10.6 7.8 66 3.1 N 15 24 8 13 1023.7 1024.0 0.0
29/01:00pm 13.5 10.5 7.5 67 3.0 N 13 19 7 10 1024.4 1024.7 0.0
29/12:30pm 13.3 9.5 7.7 69 2.8 N 17 28 9 15 1025.1 1025.3 0.0
29/12:00pm 13.4 9.3 8.0 70 2.7 N 19 26 10 14 1025.5 1025.7 0.0
29/11:30am 13.8 9.9 9.3 74 2.3 N 20 30 11 16 1025.6 1025.8 0.0
29/11:00am 12.5 11.0 9.3 81 1.6 ENE 7 9 4 5 1026.2 1026.4 0.0
29/10:30am 10.9 8.8 8.3 84 1.3 E 9 13 5 7 1026.4 1026.6 0.0
29/10:00am 8.9 6.5 7.0 88 0.9 E 9 13 5 7 1026.7 1026.9 0.0
29/09:30am 6.4 3.5 4.7 89 0.7 E 9 13 5 7 1026.9 1027.1 0.0
29/09:00am 3.4 1.7 1.6 88 0.7 CALM 0 0 0 0 1027.0 1027.2 0.0
29/08:30am 1.8 -0.2 -0.1 87 0.7 CALM 0 0 0 0 1027.0 1027.2 0.0
29/08:00am 1.0 -1.1 -1.1 86 0.7 CALM 0 0 0 0 1026.9 1027.1 0.0
29/07:30am 0.3 -3.1 -1.8 86 0.8 ESE 6 6 3 3 1026.5 1026.7 0.0
29/07:00am -0.4 -3.9 -2.6 85 0.7 ESE 6 7 3 4 1026.4 1026.6 0.0
29/06:30am -0.1 -2.8 -2.3 85 0.8 WNW 2 6 1 3 1026.3 1026.5 0.0
29/06:00am -0.6 -3.0 -2.8 85 0.7 CALM 0 0 0 0 1026.3 1026.5 0.0
29/05:30am -0.5 -2.8 -2.7 85 0.7 CALM 0 0 0 0 1026.3 1026.5 0.0
29/05:00am -0.6 -4.1 -3.0 84 0.8 WNW 6 11 3 6 1026.4 1026.6 0.0
29/04:30am -0.5 -2.9 -2.9 84 0.8 CALM 0 0 0 0 1026.5 1026.7 0.0
29/04:00am -1.0 -3.4 -3.5 83 0.8 CALM 0 0 0 0 1026.4 1026.6 0.0
29/03:30am -0.7 -3.1 -3.2 83 0.8 CALM 0 0 0 0 1026.5 1026.7 0.0
29/03:00am -1.6 -5.5 -4.3 82 0.8 E 7 9 4 5 1026.4 1026.6 0.0
29/02:30am -1.1 -4.9 -3.8 82 0.8 E 7 9 4 5 1026.9 1027.1 0.0
29/02:00am -0.9 -3.4 -3.7 81 0.9 CALM 0 0 0 0 1027.7 1028.0 0.0
29/01:30am 0.0 -3.1 -2.9 81 1.0 ENE 4 7 2 4 1027.8 1028.1 0.0
29/01:00am -0.1 -4.2 -3.1 80 1.0 NE 9 11 5 6 1027.5 1027.8 0.0
29/12:30am -0.1 -3.8 -3.1 80 1.0 ENE 7 9 4 5 1028.1 1028.4 0.0
29/12:00am 0.4 -1.9 -2.6 80 1.0 CALM 0 0 0 0 1028.2 1028.5 0.0
 
Date/Time
EST
Temp
°C
App
Temp
°C
Dew
Point
°C
Rel
Hum
%
Delta-T
°C
Wind Press
QNH
hPa
Press
MSL
hPa
Rain since
9am
mm
Dir  Spd
km/h
Gust
km/h
Spd
kts
Gust
kts
28/11:30pm -0.4 -4.2 -3.8 78 1.1 N 7 11 4 6 1028.3 1028.6 0.0
28/11:00pm 0.1 -2.3 -3.4 77 1.2 CALM 0 0 0 0 1028.2 1028.5 0.0
28/10:30pm 0.4 -2.0 -3.3 76 1.3 CALM 0 0 0 0 1028.4 1028.7 0.0
28/10:00pm 1.1 -1.3 -2.8 75 1.4 CALM 0 0 0 0 1028.7 1029.0 0.0
28/09:30pm 1.3 -2.4 -2.6 75 1.4 W 7 9 4 5 1029.0 1029.3 0.0
28/09:00pm 0.7 -3.1 -3.6 73 1.5 WNW 7 9 4 5 1028.8 1029.1 0.0
28/08:30pm 0.5 -2.0 -4.1 71 1.5 CALM 0 0 0 0 1028.5 1028.8 0.0
28/08:00pm 1.4 -1.0 -3.5 70 1.7 CALM 0 4 0 2 1028.5 1028.8 0.0
28/07:30pm 0.6 -2.0 -5.0 66 1.8 CALM 0 0 0 0 1028.3 1028.6 0.0
28/07:00pm 3.4 1.1 -2.3 66 2.0 CALM 0 0 0 0 1028.3 1028.6 0.0
28/06:30pm 2.7 0.2 -4.1 61 2.3 CALM 0 0 0 0 1028.1 1028.4 0.0
28/06:00pm 5.9 2.6 -1.3 60 2.7 SE 6 7 3 4 1027.9 1028.2 0.0

Other formats

Comma delimited format used in spreadsheet applications
http://www.bom.gov.au/fwo/IDN60801/IDN60801.95708.axf

JavaScript Object Notation format (JSON) in row-major order
http://www.bom.gov.au/fwo/IDN60801/IDN60801.95708.json

Data quality

Most of these data are generated automatically and are frequently updated. Quality checks on data are not normally performed. It is possible for incorrect values to appear. Refer to information at About Latest Weather Observations and please check the disclaimer before using these data.